Time;durP1;ratioP1;P1;durP2;ratioP2;P2;SDS_P1;SDS_P2;PMS_P1;PMS_P2;Temp;Humidity;BMP_temperature;BMP_pressure;BME280_temperature;BME280_humidity;BME280_pressure;Samples;Min_cycle;Max_cycle;Signal;HPM_P1;HPM_P2
2021/08/01 00:01:27;;;;;;;5.37;4.87;;;20.90;1.00;;;;;;5124054;27;20200;-53
2021/08/01 00:03:53;;;;;;;5.23;4.70;;;20.90;1.00;;;;;;5129154;27;20442;-53
2021/08/01 00:06:19;;;;;;;9.50;4.23;;;20.90;1.00;;;;;;5127545;27;20596;-55
2021/08/01 00:08:45;;;;;;;6.50;4.67;;;20.90;1.00;;;;;;5127572;27;20196;-54
2021/08/01 00:11:11;;;;;;;9.30;5.10;;;20.90;1.00;;;;;;5121803;27;20191;-53
2021/08/01 00:13:37;;;;;;;7.90;4.93;;;20.90;1.00;;;;;;5121630;27;20793;-54
2021/08/01 00:16:03;;;;;;;5.47;4.90;;;20.90;1.00;;;;;;5127451;27;20796;-55
2021/08/01 00:18:28;;;;;;;5.20;4.70;;;21.00;1.00;;;;;;5130881;27;20435;-53
2021/08/01 00:20:55;;;;;;;8.90;4.90;;;21.00;1.00;;;;;;5128625;27;20653;-54
2021/08/01 00:23:21;;;;;;;4.90;4.40;;;20.90;1.00;;;;;;5126651;27;20178;-53
2021/08/01 00:25:46;;;;;;;5.00;4.30;;;20.80;1.00;;;;;;5127335;27;20773;-54
2021/08/01 00:28:12;;;;;;;6.47;4.27;;;20.80;1.00;;;;;;5127335;27;20217;-54
2021/08/01 00:30:37;;;;;;;7.40;4.23;;;20.80;1.00;;;;;;5130271;27;20694;-54
2021/08/01 00:33:03;;;;;;;5.90;5.00;;;20.70;1.00;;;;;;5129367;27;20234;-53
2021/08/01 00:35:28;;;;;;;7.53;4.87;;;20.60;1.00;;;;;;5128234;27;20186;-55
2021/08/01 00:37:54;;;;;;;6.30;4.10;;;20.70;1.00;;;;;;5129350;27;20265;-55
2021/08/01 00:40:22;;;;;;;4.80;4.40;;;20.60;1.00;;;;;;5129164;27;20638;-55
2021/08/01 00:42:48;;;;;;;4.57;3.90;;;20.60;1.00;;;;;;5128001;27;20569;-54
2021/08/01 00:45:14;;;;;;;7.50;4.43;;;20.60;1.00;;;;;;5129933;27;20458;-54
2021/08/01 00:47:42;;;;;;;7.93;4.93;;;20.50;1.00;;;;;;5127668;27;20488;-54
2021/08/01 00:50:08;;;;;;;5.27;4.07;;;20.60;1.00;;;;;;5130317;27;20434;-54
2021/08/01 00:52:36;;;;;;;7.80;4.63;;;20.40;1.00;;;;;;5133576;27;20455;-53
2021/08/01 00:55:06;;;;;;;5.13;4.57;;;20.40;1.00;;;;;;5131587;27;20438;-55
2021/08/01 00:57:32;;;;;;;4.87;3.80;;;20.50;1.00;;;;;;5132402;27;20521;-53
2021/08/01 00:59:58;;;;;;;5.73;4.27;;;20.40;1.00;;;;;;5132322;27;20529;-54
2021/08/01 01:02:35;;;;;;;4.40;3.63;;;20.30;1.00;;;;;;5133318;27;20189;-54
2021/08/01 01:05:23;;;;;;;4.97;4.33;;;20.30;1.00;;;;;;5128082;27;20185;-55
2021/08/01 01:08:08;;;;;;;7.30;4.00;;;20.20;1.00;;;;;;5133593;27;20467;-55
2021/08/01 01:10:38;;;;;;;4.23;3.80;;;20.20;1.00;;;;;;5132234;27;20787;-54
2021/08/01 01:13:12;;;;;;;5.57;4.57;;;20.10;1.00;;;;;;5128753;27;20998;-54
2021/08/01 01:15:46;;;;;;;10.40;4.30;;;20.10;1.00;;;;;;5113915;27;20431;-54
2021/08/01 01:18:28;;;;;;;7.00;4.27;;;20.10;1.00;;;;;;5115243;27;20430;-54
2021/08/01 01:21:20;;;;;;;4.97;4.50;;;20.00;1.00;;;;;;5133217;27;20435;-54
2021/08/01 01:24:21;;;;;;;4.50;4.10;;;19.90;1.00;;;;;;5122695;27;20797;-55
2021/08/01 01:27:00;;;;;;;5.00;4.03;;;20.00;1.00;;;;;;5132098;27;20493;-54
2021/08/01 01:29:40;;;;;;;4.90;4.40;;;19.90;1.00;;;;;;5128753;27;20479;-55
2021/08/01 01:32:25;;;;;;;8.80;6.30;;;19.90;1.00;;;;;;5131310;27;20439;-55
2021/08/01 01:34:59;;;;;;;5.50;4.87;;;19.90;1.00;;;;;;5130288;27;20434;-55
2021/08/01 01:37:26;;;;;;;4.90;4.30;;;19.90;1.00;;;;;;5132788;27;20610;-54
2021/08/01 01:39:54;;;;;;;5.40;4.90;;;19.90;1.00;;;;;;5133414;27;20876;-54
2021/08/01 01:42:22;;;;;;;5.27;4.77;;;19.80;1.00;;;;;;5114253;27;20844;-54
2021/08/01 01:44:48;;;;;;;4.50;3.83;;;19.90;1.00;;;;;;5128596;27;21624;-55
2021/08/01 01:47:15;;;;;;;5.30;4.30;;;19.90;1.00;;;;;;5133159;27;20490;-54
2021/08/01 01:49:42;;;;;;;5.00;4.50;;;19.90;1.00;;;;;;5132535;27;20217;-54
2021/08/01 01:52:13;;;;;;;5.73;4.87;;;19.80;1.00;;;;;;5109330;28;20828;-54
2021/08/01 01:54:40;;;;;;;5.37;4.97;;;19.70;1.00;;;;;;5109278;28;20438;-53
2021/08/01 01:57:06;;;;;;;7.67;5.33;;;19.70;1.00;;;;;;5110944;28;20439;-55
2021/08/01 01:59:32;;;;;;;5.73;4.20;;;19.60;1.00;;;;;;5108649;28;20447;-54
2021/08/01 02:01:58;;;;;;;8.93;4.63;;;19.60;1.00;;;;;;5106821;28;20846;-55
2021/08/01 02:04:23;;;;;;;4.93;4.53;;;19.60;1.00;;;;;;5111177;28;20241;-53
2021/08/01 02:06:49;;;;;;;5.50;4.17;;;19.60;1.00;;;;;;5107322;28;20709;-56
2021/08/01 02:09:42;;;;;;;5.17;4.67;;;19.70;1.00;;;;;;5111145;28;20517;-55
2021/08/01 02:12:16;;;;;;;5.97;5.37;;;19.60;1.00;;;;;;5111650;28;20580;-53
2021/08/01 02:14:57;;;;;;;5.00;4.60;;;19.60;1.00;;;;;;5110148;28;20445;-54
2021/08/01 02:17:29;;;;;;;5.30;4.40;;;19.70;1.00;;;;;;5110884;28;20427;-53
2021/08/01 02:19:57;;;;;;;6.27;5.27;;;19.70;1.00;;;;;;5110655;28;20917;-54
2021/08/01 02:22:24;;;;;;;7.40;5.87;;;19.70;1.00;;;;;;5102812;28;20447;-54
2021/08/01 02:24:51;;;;;;;5.20;4.70;;;19.70;1.00;;;;;;5107220;28;20439;-54
2021/08/01 02:27:18;;;;;;;5.67;5.17;;;19.80;1.00;;;;;;5109271;28;20460;-53
2021/08/01 02:29:44;;;;;;;5.40;4.67;;;19.80;1.00;;;;;;5108242;28;20433;-53
2021/08/01 02:32:10;;;;;;;4.83;4.37;;;19.70;1.00;;;;;;5106007;28;20454;-54
2021/08/01 02:34:37;;;;;;;4.93;4.53;;;19.60;1.00;;;;;;5109260;28;20650;-55
2021/08/01 02:37:04;;;;;;;6.17;5.30;;;19.70;1.00;;;;;;5110620;28;20789;-55
2021/08/01 02:39:32;;;;;;;6.13;4.83;;;19.70;1.00;;;;;;5109416;28;20932;-54
2021/08/01 02:42:01;;;;;;;4.90;4.40;;;19.70;1.00;;;;;;5108768;27;20440;-54
2021/08/01 02:44:28;;;;;;;4.87;4.47;;;19.70;1.00;;;;;;5109428;28;20446;-56
2021/08/01 02:46:56;;;;;;;5.93;4.20;;;19.60;1.00;;;;;;5110294;28;20471;-55
2021/08/01 02:49:26;;;;;;;4.57;4.13;;;19.70;1.00;;;;;;5106420;28;20539;-55
2021/08/01 02:51:53;;;;;;;5.23;4.70;;;19.80;1.00;;;;;;5112132;27;20570;-54
2021/08/01 02:54:23;;;;;;;5.53;3.93;;;19.70;1.00;;;;;;5129181;27;20760;-54
2021/08/01 02:56:55;;;;;;;4.93;4.43;;;19.70;1.00;;;;;;5108484;27;20935;-54
2021/08/01 02:59:22;;;;;;;5.00;4.50;;;19.60;1.00;;;;;;5129332;27;20479;-55
2021/08/01 03:01:48;;;;;;;5.67;5.17;;;19.70;1.00;;;;;;5123913;27;21022;-53
2021/08/01 03:04:14;;;;;;;7.40;4.20;;;19.70;1.00;;;;;;5128494;27;20827;-55
2021/08/01 03:06:42;;;;;;;4.67;4.17;;;19.80;1.00;;;;;;5131066;27;20454;-55
2021/08/01 03:09:09;;;;;;;6.73;4.50;;;19.60;1.00;;;;;;5130327;27;20884;-53
2021/08/01 03:11:34;;;;;;;4.27;3.97;;;19.70;1.00;;;;;;5128946;27;20825;-54
2021/08/01 03:14:01;;;;;;;4.00;3.70;;;19.60;1.00;;;;;;5130628;27;20528;-53
2021/08/01 03:16:27;;;;;;;8.17;4.57;;;19.60;1.00;;;;;;5131105;27;20174;-53
2021/08/01 03:18:53;;;;;;;4.70;4.30;;;19.60;1.00;;;;;;5116344;27;20950;-55
2021/08/01 03:21:18;;;;;;;6.60;4.30;;;19.60;1.00;;;;;;5130440;27;20608;-54
2021/08/01 03:23:44;;;;;;;6.37;4.50;;;;;;;;;;5129791;27;20298;-54
2021/08/01 03:26:10;;;;;;;5.43;3.73;;;19.60;1.00;;;;;;5112331;27;20661;-55
2021/08/01 03:28:35;;;;;;;8.97;5.00;;;19.60;1.00;;;;;;5123659;27;20463;-53
2021/08/01 03:31:01;;;;;;;5.10;4.10;;;19.60;1.00;;;;;;5130737;27;20256;-55
2021/08/01 03:33:26;;;;;;;4.30;3.93;;;19.60;1.00;;;;;;5128203;27;20192;-55
2021/08/01 03:35:52;;;;;;;4.97;4.47;;;19.60;1.00;;;;;;5129696;27;20211;-54
2021/08/01 03:38:18;;;;;;;4.50;4.10;;;19.60;1.00;;;;;;5127409;27;20193;-54
2021/08/01 03:40:43;;;;;;;5.07;4.50;;;19.50;1.00;;;;;;5130475;27;20256;-54
2021/08/01 03:43:09;;;;;;;4.20;3.90;;;19.60;1.00;;;;;;5129949;27;20181;-55
2021/08/01 03:45:34;;;;;;;4.70;4.27;;;19.60;1.00;;;;;;5131111;27;20178;-54
2021/08/01 03:48:00;;;;;;;5.00;4.50;;;19.50;1.00;;;;;;5128963;27;20249;-53
2021/08/01 03:50:25;;;;;;;5.10;4.57;;;19.50;1.00;;;;;;5129193;27;20223;-56
2021/08/01 03:52:51;;;;;;;5.13;4.27;;;19.50;1.00;;;;;;5126750;27;20218;-55
2021/08/01 03:55:16;;;;;;;4.50;4.10;;;19.50;1.00;;;;;;5125065;27;20185;-55
2021/08/01 03:57:42;;;;;;;4.57;4.17;;;19.50;1.00;;;;;;5130324;27;20181;-52
2021/08/01 04:00:08;;;;;;;5.30;4.50;;;19.50;1.00;;;;;;5130449;27;20265;-55
2021/08/01 04:02:36;;;;;;;4.33;4.03;;;19.50;1.00;;;;;;5127368;27;20722;-54
2021/08/01 04:05:02;;;;;;;4.10;3.80;;;19.50;1.00;;;;;;5130276;27;20474;-54
2021/08/01 04:07:28;;;;;;;4.63;4.10;;;19.50;1.00;;;;;;5129082;27;20454;-55
2021/08/01 04:09:53;;;;;;;5.90;4.60;;;19.50;1.00;;;;;;5127515;27;20437;-53
2021/08/01 04:12:20;;;;;;;4.80;4.23;;;19.40;1.00;;;;;;5111629;27;20174;-53
2021/08/01 04:14:46;;;;;;;5.10;4.60;;;19.50;1.00;;;;;;5130430;27;20203;-53
2021/08/01 04:17:11;;;;;;;7.83;4.57;;;19.50;1.00;;;;;;5130410;27;20430;-53
2021/08/01 04:19:37;;;;;;;5.07;4.57;;;19.40;1.00;;;;;;5126078;27;20201;-54
2021/08/01 04:22:03;;;;;;;5.50;5.00;;;19.30;1.00;;;;;;5125828;27;20216;-56
2021/08/01 04:24:28;;;;;;;5.07;4.33;;;19.20;1.00;;;;;;5130139;27;20471;-55
2021/08/01 04:26:54;;;;;;;5.67;4.43;;;19.20;1.00;;;;;;5131081;27;20210;-54
2021/08/01 04:29:19;;;;;;;5.10;4.60;;;19.20;1.00;;;;;;5134252;27;20252;-53
2021/08/01 04:31:45;;;;;;;4.70;4.20;;;19.20;1.00;;;;;;5134824;27;20198;-53
2021/08/01 04:34:11;;;;;;;6.37;4.33;;;19.20;1.00;;;;;;5130006;27;20181;-55
2021/08/01 04:36:37;;;;;;;4.97;4.47;;;19.30;1.00;;;;;;5132595;27;20177;-55
2021/08/01 04:39:02;;;;;;;5.00;4.50;;;19.30;1.00;;;;;;5133845;27;20184;-54
2021/08/01 04:41:28;;;;;;;4.27;3.97;;;19.30;1.00;;;;;;5134049;27;20454;-54
2021/08/01 04:43:54;;;;;;;5.53;4.00;;;19.30;1.00;;;;;;5131209;27;20185;-55
2021/08/01 04:46:19;;;;;;;5.90;4.77;;;19.40;1.00;;;;;;5134010;27;20189;-54
2021/08/01 04:48:45;;;;;;;4.40;4.00;;;19.40;1.00;;;;;;5133783;27;20188;-54
2021/08/01 04:51:10;;;;;;;5.63;4.77;;;19.40;1.00;;;;;;5134265;27;20634;-54
2021/08/01 04:53:36;;;;;;;3.87;3.57;;;19.30;1.00;;;;;;5133277;27;20232;-54
2021/08/01 04:56:02;;;;;;;4.10;3.63;;;19.50;1.00;;;;;;5132439;27;20181;-55
2021/08/01 04:58:27;;;;;;;5.60;4.17;;;19.50;1.00;;;;;;5133327;27;20490;-56
2021/08/01 05:00:53;;;;;;;5.90;4.43;;;19.50;1.00;;;;;;5131818;27;20236;-54
2021/08/01 05:03:18;;;;;;;7.30;4.40;;;19.50;1.00;;;;;;5131748;27;20180;-54
2021/08/01 05:05:44;;;;;;;4.23;3.93;;;19.50;1.00;;;;;;5154554;27;20195;-55
2021/08/01 05:08:09;;;;;;;4.30;3.70;;;19.50;1.00;;;;;;5133898;27;20210;-52
2021/08/01 05:10:35;;;;;;;4.20;3.90;;;19.50;1.00;;;;;;5133585;27;20256;-53
2021/08/01 05:13:05;;;;;;;5.53;3.93;;;19.60;1.00;;;;;;5133006;27;20173;-56
2021/08/01 05:15:30;;;;;;;4.23;3.77;;;19.60;1.00;;;;;;5130369;27;20664;-54
2021/08/01 05:17:56;;;;;;;8.03;3.97;;;19.60;1.00;;;;;;5132240;27;20470;-54
2021/08/01 05:20:21;;;;;;;4.37;4.00;;;19.60;1.00;;;;;;5130646;27;20181;-53
2021/08/01 05:22:47;;;;;;;4.80;4.20;;;19.60;1.00;;;;;;5133579;27;20260;-54
2021/08/01 05:25:12;;;;;;;4.40;4.00;;;19.70;1.00;;;;;;5133619;27;20174;-54
2021/08/01 05:27:38;;;;;;;4.50;4.10;;;19.60;1.00;;;;;;5131972;27;20212;-54
2021/08/01 05:30:04;;;;;;;4.40;3.60;;;19.70;1.00;;;;;;5129181;27;20538;-55
2021/08/01 05:32:33;;;;;;;4.13;3.73;;;19.70;1.00;;;;;;5129080;27;20180;-55
2021/08/01 05:34:59;;;;;;;4.00;3.70;;;19.80;1.00;;;;;;5129960;27;20431;-54
2021/08/01 05:37:25;;;;;;;4.40;4.00;;;19.80;1.00;;;;;;5131357;27;20466;-55
2021/08/01 05:39:50;;;;;;;4.90;3.43;;;19.80;1.00;;;;;;5112903;27;20438;-55
2021/08/01 05:42:18;;;;;;;7.70;4.20;;;19.80;1.00;;;;;;5129040;27;20185;-55
2021/08/01 05:44:43;;;;;;;5.43;3.80;;;19.80;1.00;;;;;;5128604;27;20188;-55
2021/08/01 05:47:09;;;;;;;4.93;3.93;;;19.90;1.00;;;;;;5132084;27;20463;-54
2021/08/01 05:49:35;;;;;;;4.33;3.93;;;19.90;1.00;;;;;;5125760;27;20185;-54
2021/08/01 05:52:01;;;;;;;4.40;4.00;;;19.90;1.00;;;;;;5132632;27;20258;-55
2021/08/01 05:54:26;;;;;;;4.63;3.30;;;20.00;1.00;;;;;;5127025;27;20257;-55
2021/08/01 05:56:52;;;;;;;3.50;3.20;;;20.00;1.00;;;;;;5132508;27;21011;-53
2021/08/01 05:59:17;;;;;;;3.70;3.40;;;20.10;1.00;;;;;;5128171;27;20670;-53
2021/08/01 06:01:43;;;;;;;3.97;3.57;;;20.10;1.00;;;;;;5128622;27;20198;-54
2021/08/01 06:04:09;;;;;;;4.23;3.60;;;20.10;1.00;;;;;;5117892;27;20181;-55
2021/08/01 06:06:34;;;;;;;4.10;3.70;;;20.20;1.00;;;;;;5130873;27;20237;-54
2021/08/01 06:09:02;;;;;;;4.00;3.47;;;20.20;1.00;;;;;;5132233;27;20173;-55
2021/08/01 06:11:27;;;;;;;4.50;4.10;;;20.30;1.00;;;;;;5129044;27;20231;-54
2021/08/01 06:13:53;;;;;;;5.13;4.20;;;20.30;1.00;;;;;;5128168;27;20518;-54
2021/08/01 06:16:18;;;;;;;4.37;3.97;;;20.30;1.00;;;;;;5124316;27;20193;-53
2021/08/01 06:18:44;;;;;;;5.07;4.53;;;20.30;1.00;;;;;;5132120;27;20197;-52
2021/08/01 06:21:18;;;;;;;5.90;3.60;;;20.40;1.00;;;;;;5130647;27;20178;-55
2021/08/01 06:23:49;;;;;;;5.10;3.80;;;20.40;1.00;;;;;;5131515;27;20253;-55
2021/08/01 06:26:15;;;;;;;4.97;4.40;;;20.40;1.00;;;;;;5131201;27;20537;-54
2021/08/01 06:28:41;;;;;;;4.70;4.00;;;20.40;1.00;;;;;;5130655;27;20463;-54
2021/08/01 06:31:07;;;;;;;3.93;3.63;;;20.40;1.00;;;;;;5130961;27;20576;-53
2021/08/01 06:33:34;;;;;;;4.87;3.87;;;20.40;1.00;;;;;;5129225;27;20439;-54
2021/08/01 06:36:00;;;;;;;4.30;3.90;;;20.40;1.00;;;;;;5132799;27;20435;-55
2021/08/01 06:38:25;;;;;;;4.23;3.83;;;20.50;1.00;;;;;;5129041;27;20927;-54
2021/08/01 06:40:51;;;;;;;4.27;3.87;;;20.50;1.00;;;;;;5130901;27;20451;-54
2021/08/01 06:43:17;;;;;;;4.50;3.87;;;20.50;1.00;;;;;;5125763;27;20186;-53
2021/08/01 06:45:43;;;;;;;4.80;4.40;;;20.60;1.00;;;;;;5132313;27;20430;-55
2021/08/01 06:48:08;;;;;;;4.37;3.90;;;20.60;1.00;;;;;;5130829;27;20467;-54
2021/08/01 06:50:36;;;;;;;4.03;3.73;;;20.60;1.00;;;;;;5127218;27;20299;-54
2021/08/01 06:53:02;;;;;;;4.60;4.20;;;20.70;1.00;;;;;;5127865;27;20561;-55
2021/08/01 06:55:28;;;;;;;4.47;4.07;;;20.70;1.00;;;;;;5132968;27;20635;-54
2021/08/01 06:57:53;;;;;;;5.33;3.87;;;20.80;1.00;;;;;;5133379;27;20430;-54
2021/08/01 07:00:22;;;;;;;5.33;4.17;;;20.90;1.00;;;;;;5126769;27;20189;-55
2021/08/01 07:02:55;;;;;;;4.07;3.77;;;20.90;1.00;;;;;;5131053;27;20204;-53
2021/08/01 07:05:21;;;;;;;4.87;4.47;;;21.10;1.00;;;;;;5125290;27;20965;-54
2021/08/01 07:07:46;;;;;;;5.20;4.80;;;20.90;1.00;;;;;;5131770;27;20920;-55
2021/08/01 07:10:12;;;;;;;7.07;4.50;;;20.90;1.00;;;;;;5111754;27;20607;-54
2021/08/01 07:12:41;;;;;;;5.87;4.20;;;21.00;1.00;;;;;;5130561;27;20417;-53
2021/08/01 07:15:08;;;;;;;4.30;4.00;;;20.90;1.00;;;;;;5112959;27;20177;-55
2021/08/01 07:17:34;;;;;;;5.53;4.43;;;21.00;1.00;;;;;;5126764;27;20446;-56
2021/08/01 07:19:59;;;;;;;7.20;4.67;;;20.90;1.00;;;;;;5124101;27;20434;-55
2021/08/01 07:22:25;;;;;;;4.83;4.33;;;21.00;1.00;;;;;;5132542;27;20758;-56
2021/08/01 07:24:50;;;;;;;6.10;4.50;;;21.00;1.00;;;;;;5118344;27;20181;-54
2021/08/01 07:27:16;;;;;;;5.70;4.47;;;21.00;1.00;;;;;;5127783;27;20230;-56
2021/08/01 07:29:41;;;;;;;4.73;4.33;;;21.00;1.00;;;;;;5128137;27;20643;-54
2021/08/01 07:32:07;;;;;;;4.83;4.43;;;21.00;1.00;;;;;;5112694;27;20182;-55
2021/08/01 07:34:33;;;;;;;5.37;4.87;;;21.00;1.00;;;;;;5128444;27;20177;-54
2021/08/01 07:36:58;;;;;;;5.13;4.47;;;21.00;1.00;;;;;;5130102;27;20184;-56
2021/08/01 07:39:24;;;;;;;4.53;4.13;;;20.90;1.00;;;;;;5130887;27;20777;-55
2021/08/01 07:41:49;;;;;;;4.80;4.40;;;20.80;1.00;;;;;;5127464;27;20177;-55
2021/08/01 07:44:15;;;;;;;7.20;4.60;;;20.90;1.00;;;;;;5130328;27;20185;-54
2021/08/01 07:46:40;;;;;;;7.90;4.20;;;20.90;1.00;;;;;;5130161;27;20316;-55
2021/08/01 07:49:06;;;;;;;5.20;4.80;;;20.80;1.00;;;;;;5128274;27;20260;-55
2021/08/01 07:51:31;;;;;;;4.70;4.30;;;20.80;1.00;;;;;;5127550;27;20280;-57
2021/08/01 07:53:57;;;;;;;8.40;5.17;;;20.80;1.00;;;;;;5111942;28;22179;-53
2021/08/01 07:56:22;;;;;;;6.10;4.33;;;20.80;1.00;;;;;;5128352;27;20222;-55
2021/08/01 07:58:48;;;;;;;4.60;4.20;;;20.90;1.00;;;;;;5129098;27;20243;-54
2021/08/01 08:01:13;;;;;;;5.77;4.87;;;20.90;1.00;;;;;;5125826;27;20269;-54
2021/08/01 08:03:42;;;;;;;7.10;4.57;;;20.80;1.00;;;;;;5126881;27;20169;-55
2021/08/01 08:06:07;;;;;;;6.43;5.30;;;20.80;1.00;;;;;;5127654;27;20527;-55
2021/08/01 08:08:33;;;;;;;4.67;4.27;;;20.90;1.00;;;;;;5129213;27;20451;-53
2021/08/01 08:10:58;;;;;;;5.20;4.80;;;20.90;1.00;;;;;;5130263;27;20193;-55
2021/08/01 08:13:24;;;;;;;5.50;5.00;;;21.00;1.00;;;;;;5129899;27;20176;-54
2021/08/01 08:15:49;;;;;;;6.83;4.80;;;21.00;1.00;;;;;;5128808;27;20268;-55
2021/08/01 08:18:15;;;;;;;5.10;4.63;;;21.00;1.00;;;;;;5130547;27;20200;-55
2021/08/01 08:20:41;;;;;;;7.20;5.50;;;20.90;1.00;;;;;;5126236;27;20195;-53
2021/08/01 08:23:06;;;;;;;6.27;5.67;;;20.90;1.00;;;;;;5126551;27;20585;-55
2021/08/01 08:25:32;;;;;;;7.03;5.70;;;20.90;1.00;;;;;;5130008;27;20177;-53
2021/08/01 08:27:58;;;;;;;6.47;5.73;;;21.00;1.00;;;;;;5109093;27;20205;-53
2021/08/01 08:30:23;;;;;;;6.63;5.30;;;21.00;1.00;;;;;;5129450;27;20177;-55
2021/08/01 08:32:49;;;;;;;6.13;5.37;;;21.00;1.00;;;;;;5127997;27;20632;-55
2021/08/01 08:35:14;;;;;;;6.77;5.93;;;21.00;1.00;;;;;;5128544;27;20190;-55
2021/08/01 08:37:48;;;;;;;7.60;5.53;;;21.00;1.00;;;;;;5143436;27;20259;-55
2021/08/01 08:40:14;;;;;;;7.73;6.70;;;21.20;1.00;;;;;;5128785;27;20212;-52
2021/08/01 08:42:45;;;;;;;6.50;5.73;;;21.30;1.00;;;;;;5126182;27;20521;-54
2021/08/01 08:45:13;;;;;;;7.43;6.00;;;21.40;1.00;;;;;;5129080;27;20865;-53
2021/08/01 08:47:39;;;;;;;6.30;5.70;;;21.50;1.00;;;;;;5127059;27;20545;-53
2021/08/01 08:50:07;;;;;;;9.27;5.80;;;21.50;1.00;;;;;;5127797;27;20436;-55
2021/08/01 08:52:35;;;;;;;6.43;5.93;;;21.60;1.00;;;;;;5129239;27;20458;-55
2021/08/01 08:55:03;;;;;;;7.10;6.50;;;21.60;1.00;;;;;;5129801;27;20442;-55
2021/08/01 08:57:41;;;;;;;6.43;5.83;;;21.70;1.00;;;;;;5128535;27;20446;-54
2021/08/01 09:00:09;;;;;;;6.60;6.00;;;21.80;1.00;;;;;;5129973;27;20450;-54
2021/08/01 09:02:35;;;;;;;6.10;5.60;;;21.80;1.00;;;;;;5126871;27;20881;-55
2021/08/01 09:05:01;;;;;;;6.70;5.50;;;21.80;1.00;;;;;;5128515;27;20417;-54
2021/08/01 09:07:27;;;;;;;9.60;6.00;;;21.80;1.00;;;;;;5150821;27;20486;-54
2021/08/01 09:09:53;;;;;;;8.40;6.10;;;21.70;1.00;;;;;;5127256;27;20470;-55
2021/08/01 09:12:20;;;;;;;6.57;5.87;;;21.60;1.00;;;;;;5130461;27;20528;-55
2021/08/01 09:14:46;;;;;;;7.00;6.40;;;21.40;1.00;;;;;;5131609;27;20438;-55
2021/08/01 09:17:12;;;;;;;6.63;5.83;;;21.60;1.00;;;;;;5132589;27;20891;-53
2021/08/01 09:19:42;;;;;;;10.43;6.87;;;21.50;1.00;;;;;;5125838;27;20513;-54
2021/08/01 09:22:19;;;;;;;8.00;5.90;;;21.60;1.00;;;;;;5132036;27;21012;-55
2021/08/01 09:24:49;;;;;;;6.20;5.60;;;21.60;1.00;;;;;;5113411;27;20517;-54
2021/08/01 09:27:29;;;;;;;7.47;6.33;;;21.70;1.00;;;;;;5145042;27;20511;-55
2021/08/01 09:29:55;;;;;;;7.23;6.53;;;21.70;1.00;;;;;;5132227;27;20473;-55
2021/08/01 09:32:23;;;;;;;6.60;5.90;;;24.00;1.00;;;;;;5134624;27;20853;-54
2021/08/01 09:34:49;;;;;;;6.27;5.57;;;21.90;1.00;;;;;;5154388;27;20429;-55
2021/08/01 09:37:32;;;;;;;7.10;6.53;;;21.70;1.00;;;;;;5150729;27;20492;-56
2021/08/01 09:40:09;;;;;;;6.50;5.90;;;21.50;1.00;;;;;;5133539;27;20243;-54
2021/08/01 09:42:43;;;;;;;6.70;6.00;;;21.40;1.00;;;;;;5133488;27;20435;-56
2021/08/01 09:45:17;;;;;;;6.70;6.10;;;21.20;1.00;;;;;;5130435;27;20733;-55
2021/08/01 09:47:43;;;;;;;6.70;6.00;;;21.20;1.00;;;;;;5130248;27;20556;-54
2021/08/01 09:50:10;;;;;;;6.33;5.77;;;21.30;1.00;;;;;;5131515;27;20439;-55
2021/08/01 09:52:35;;;;;;;6.67;5.97;;;21.50;1.00;;;;;;5132411;27;20562;-55
2021/08/01 09:55:02;;;;;;;6.30;5.70;;;21.50;1.00;;;;;;5133084;27;20522;-53
2021/08/01 09:57:27;;;;;;;7.20;6.30;;;21.30;1.00;;;;;;5131813;27;20372;-54
2021/08/01 10:00:10;;;;;;;6.67;6.07;;;21.30;1.00;;;;;;5133263;27;20439;-53
2021/08/01 10:02:37;;;;;;;5.77;5.27;;;21.40;1.00;;;;;;5130652;27;20206;-53
2021/08/01 10:05:22;;;;;;;6.00;5.40;;;21.50;1.00;;;;;;5133243;27;20784;-53
2021/08/01 10:07:50;;;;;;;6.37;5.23;;;21.60;1.00;;;;;;5136511;27;20546;-53
2021/08/01 10:10:21;;;;;;;6.73;5.40;;;22.00;1.00;;;;;;5152706;27;20447;-56
2021/08/01 10:12:48;;;;;;;6.83;5.20;;;22.10;1.00;;;;;;5121295;27;20439;-55
2021/08/01 10:15:15;;;;;;;5.60;5.07;;;22.30;1.00;;;;;;5130735;27;20980;-55
2021/08/01 10:17:41;;;;;;;6.67;5.30;;;22.40;1.00;;;;;;5132047;27;20586;-54
2021/08/01 10:20:07;;;;;;;6.60;5.43;;;22.50;1.00;;;;;;5132583;27;20522;-55
2021/08/01 10:22:38;;;;;;;5.50;5.00;;;22.40;1.00;;;;;;5131415;27;20181;-54
2021/08/01 10:25:25;;;;;;;5.50;5.10;;;22.40;1.00;;;;;;5132503;27;20521;-54
2021/08/01 10:27:58;;;;;;;7.07;5.73;;;22.60;1.00;;;;;;5131583;27;20519;-55
2021/08/01 10:30:27;;;;;;;5.60;5.10;;;22.60;1.00;;;;;;5137424;27;20787;-52
2021/08/01 10:33:07;;;;;;;8.57;5.93;;;22.50;1.00;;;;;;5132429;27;20450;-53
2021/08/01 10:35:41;;;;;;;5.47;4.97;;;22.40;1.00;;;;;;5132436;27;20517;-55
2021/08/01 10:38:11;;;;;;;5.70;5.20;;;22.40;1.00;;;;;;5132263;27;20435;-56
2021/08/01 10:40:37;;;;;;;7.33;5.00;;;22.30;1.00;;;;;;5127081;27;20562;-55
2021/08/01 10:43:15;;;;;;;6.70;6.10;;;22.30;1.00;;;;;;5131356;27;20947;-55
2021/08/01 10:45:45;;;;;;;6.10;5.60;;;22.30;1.00;;;;;;5131783;27;20980;-55
2021/08/01 10:48:13;;;;;;;6.00;5.33;;;22.50;1.00;;;;;;5127695;27;20489;-56
2021/08/01 10:50:40;;;;;;;7.57;5.93;;;22.70;1.00;;;;;;5121984;27;20454;-52
2021/08/01 10:53:18;;;;;;;6.10;5.10;;;22.80;1.00;;;;;;5130234;27;20464;-54
2021/08/01 10:55:48;;;;;;;6.07;5.50;;;22.90;1.00;;;;;;5112745;27;20483;-55
2021/08/01 10:58:15;;;;;;;6.37;5.80;;;22.90;1.00;;;;;;5131038;27;20430;-55
2021/08/01 11:00:55;;;;;;;6.90;6.20;;;23.30;1.00;;;;;;5107884;27;20537;-55
2021/08/01 11:03:22;;;;;;;6.30;5.70;;;23.50;1.00;;;;;;5131098;27;20462;-53
2021/08/01 11:05:48;;;;;;;6.93;5.43;;;23.50;1.00;;;;;;5127454;27;20456;-53
2021/08/01 11:08:14;;;;;;;6.30;5.80;;;23.90;1.00;;;;;;5153620;27;20458;-55
2021/08/01 11:10:43;;;;;;;6.70;6.10;;;24.00;1.00;;;;;;5152071;27;20542;-56
2021/08/01 11:13:24;;;;;;;7.47;6.50;;;25.60;1.00;;;;;;5152932;27;20268;-54
2021/08/01 11:15:50;;;;;;;6.40;5.90;;;24.20;1.00;;;;;;5132597;27;20526;-54
2021/08/01 11:18:31;;;;;;;8.37;6.00;;;24.40;1.00;;;;;;5131872;27;20940;-55
2021/08/01 11:20:59;;;;;;;13.93;6.93;;;24.60;1.00;;;;;;5131546;27;20445;-55
2021/08/01 11:23:46;;;;;;;6.43;5.83;;;24.50;1.00;;;;;;5113767;27;20438;-55
2021/08/01 11:26:19;;;;;;;6.93;6.37;;;24.60;1.00;;;;;;5151435;27;20426;-55
2021/08/01 11:28:48;;;;;;;7.67;7.07;;;24.60;1.00;;;;;;5152151;27;20511;-55
2021/08/01 11:31:23;;;;;;;7.33;6.40;;;24.50;1.00;;;;;;5145915;27;20434;-56
2021/08/01 11:33:53;;;;;;;7.87;7.17;;;24.50;1.00;;;;;;5151480;27;20436;-56
2021/08/01 11:36:20;;;;;;;7.37;6.67;;;24.40;1.00;;;;;;5152361;27;20438;-56
2021/08/01 11:38:52;;;;;;;7.90;6.60;;;24.10;1.00;;;;;;5151675;27;20981;-56
2021/08/01 11:41:37;;;;;;;7.33;6.63;;;23.90;1.00;;;;;;5152426;27;20482;-57
2021/08/01 11:44:03;;;;;;;8.33;7.57;;;23.50;1.00;;;;;;5152287;27;20794;-55
2021/08/01 11:46:50;;;;;;;7.97;6.57;;;23.10;1.00;;;;;;5131221;27;20513;-56
2021/08/01 11:49:25;;;;;;;7.80;7.10;;;22.90;1.00;;;;;;5131285;27;20181;-57
2021/08/01 11:51:54;;;;;;;6.53;6.03;;;22.80;1.00;;;;;;5130882;27;20969;-56
2021/08/01 11:54:32;;;;;;;9.47;7.20;;;22.70;1.00;;;;;;5131781;27;20948;-56
2021/08/01 11:57:03;;;;;;;7.90;7.20;;;22.70;1.00;;;;;;5131217;27;20445;-56
2021/08/01 11:59:30;;;;;;;7.57;6.97;;;22.30;1.00;;;;;;5131474;27;20423;-55
2021/08/01 12:01:56;;;;;;;7.07;6.30;;;21.90;1.00;;;;;;5131193;27;20471;-56
2021/08/01 12:04:22;;;;;;;7.40;6.70;;;21.80;1.00;;;;;;5131162;27;20435;-56
2021/08/01 12:06:56;;;;;;;8.13;7.37;;;22.00;1.00;;;;;;5131449;27;20434;-56
2021/08/01 12:09:25;;;;;;;7.30;6.70;;;22.20;1.00;;;;;;5131440;27;20457;-54
2021/08/01 12:11:59;;;;;;;7.40;6.67;;;22.30;1.00;;;;;;5131088;27;20776;-56
2021/08/01 12:14:36;;;;;;;7.80;7.10;;;22.40;1.00;;;;;;5131192;27;20958;-55
2021/08/01 12:17:08;;;;;;;7.80;7.10;;;22.30;1.00;;;;;;5131824;27;20446;-55
2021/08/01 12:19:46;;;;;;;7.53;6.87;;;22.50;1.00;;;;;;5135216;27;20439;-58
2021/08/01 12:22:24;;;;;;;8.93;6.50;;;22.30;1.00;;;;;;5128550;27;20474;-56
2021/08/01 12:24:56;;;;;;;7.80;7.10;;;22.30;1.00;;;;;;5125524;27;20434;-55
2021/08/01 12:27:28;;;;;;;8.37;7.57;;;22.30;1.00;;;;;;5124597;27;20463;-56
2021/08/01 12:30:03;;;;;;;7.23;6.53;;;22.30;1.00;;;;;;5127271;27;20942;-55
2021/08/01 12:32:33;;;;;;;8.33;7.33;;;22.30;1.00;;;;;;5128375;27;20449;-54
2021/08/01 12:35:17;;;;;;;7.47;6.77;;;22.30;1.00;;;;;;5127385;27;20431;-56
2021/08/01 12:38:03;;;;;;;7.20;6.50;;;22.60;1.00;;;;;;5127478;27;20496;-55
2021/08/01 12:40:39;;;;;;;7.63;7.00;;;22.70;1.00;;;;;;5128049;27;20438;-55
2021/08/01 12:43:11;;;;;;;8.63;6.47;;;22.70;1.00;;;;;;5127648;27;20902;-56
2021/08/01 12:45:47;;;;;;;8.87;6.83;;;22.80;1.00;;;;;;5131080;27;20522;-55
2021/08/01 12:48:16;;;;;;;7.27;6.37;;;22.90;1.00;;;;;;5130127;27;20461;-56
2021/08/01 12:50:50;;;;;;;7.40;6.80;;;23.30;1.00;;;;;;5134551;27;20483;-54
2021/08/01 12:53:19;;;;;;;7.20;6.60;;;23.60;1.00;;;;;;5132988;27;20463;-56
2021/08/01 12:55:49;;;;;;;7.53;6.83;;;23.60;1.00;;;;;;5134450;27;20430;-56
2021/08/01 12:58:14;;;;;;;6.83;6.20;;;23.60;1.00;;;;;;5131765;27;20994;-55
2021/08/01 13:01:03;;;;;;;7.20;6.50;;;23.40;1.00;;;;;;5134552;27;20439;-55
2021/08/01 13:03:45;;;;;;;6.77;6.10;;;23.70;1.00;;;;;;5131051;27;20186;-56
2021/08/01 13:06:13;;;;;;;7.03;5.73;;;24.00;1.00;;;;;;5134316;27;20438;-55